createdAt,value
2023-03-08T00:01:42.120Z,7.20
2023-03-08T00:04:11.628Z,7.30
2023-03-08T00:06:39.304Z,7.70
2023-03-08T00:09:06.949Z,9.80
2023-03-08T00:11:34.587Z,8.38
2023-03-08T00:14:03.296Z,8.18
2023-03-08T00:16:32.336Z,8.70
2023-03-08T00:18:59.963Z,10.38
2023-03-08T00:21:27.593Z,9.07
2023-03-08T00:23:55.539Z,9.68
2023-03-08T00:26:23.548Z,8.68
2023-03-08T00:28:51.279Z,9.05
2023-03-08T00:31:19.127Z,9.02
2023-03-08T00:33:48.193Z,9.32
2023-03-08T00:36:16.737Z,8.32
2023-03-08T00:38:45.203Z,10.18
2023-03-08T00:41:12.986Z,9.10
2023-03-08T00:43:42.248Z,8.05
2023-03-08T00:46:10.529Z,9.43
2023-03-08T00:48:38.124Z,8.77
2023-03-08T00:51:07.391Z,7.93
2023-03-08T00:53:35.102Z,7.82
2023-03-08T00:56:02.720Z,7.38
2023-03-08T00:58:31.401Z,6.90
2023-03-08T01:00:59.155Z,7.50
2023-03-08T01:03:26.959Z,6.20
2023-03-08T01:05:55.640Z,7.43
2023-03-08T01:08:25.364Z,8.30
2023-03-08T01:10:53.778Z,7.00
2023-03-08T01:13:21.818Z,8.13
2023-03-08T01:15:49.520Z,8.00
2023-03-08T01:18:17.955Z,8.18
2023-03-08T01:20:45.658Z,8.25
2023-03-08T01:23:14.574Z,7.55
2023-03-08T01:25:43.815Z,7.88
2023-03-08T01:28:11.453Z,8.10
2023-03-08T01:30:39.079Z,8.20
2023-03-08T01:33:06.792Z,8.35
2023-03-08T01:35:34.477Z,7.28
2023-03-08T01:38:02.169Z,8.10
2023-03-08T01:40:29.789Z,7.93
2023-03-08T01:42:58.736Z,9.23
2023-03-08T01:45:45.330Z,10.02
2023-03-08T01:48:13.982Z,9.95
2023-03-08T01:50:41.930Z,7.78
2023-03-08T01:53:09.666Z,7.40
2023-03-08T01:55:37.345Z,7.22
2023-03-08T01:58:06.564Z,6.95
2023-03-08T02:00:34.230Z,6.68
2023-03-08T02:03:02.558Z,6.00
2023-03-08T02:05:30.788Z,4.82
2023-03-08T02:07:58.402Z,5.32
2023-03-08T02:10:26.084Z,5.05
2023-03-08T02:12:53.866Z,4.40
2023-03-08T02:15:23.231Z,5.03
2023-03-08T02:17:50.862Z,3.85
2023-03-08T02:20:19.640Z,4.57
2023-03-08T02:22:50.183Z,4.70
2023-03-08T02:25:18.974Z,5.60
2023-03-08T02:27:46.840Z,3.97
2023-03-08T02:30:16.474Z,5.30
2023-03-08T02:32:44.278Z,5.38
2023-03-08T02:35:11.969Z,4.00
2023-03-08T02:37:39.755Z,3.65
2023-03-08T02:40:09.757Z,4.00
2023-03-08T02:42:37.377Z,4.40
2023-03-08T02:45:05.716Z,3.13
2023-03-08T02:47:33.383Z,4.63
2023-03-08T02:50:01.009Z,4.55
2023-03-08T02:52:28.661Z,3.75
2023-03-08T02:54:56.383Z,3.85
2023-03-08T02:57:25.377Z,3.63
2023-03-08T02:59:53.016Z,5.07
2023-03-08T03:02:20.602Z,3.70
2023-03-08T03:04:48.299Z,4.10
2023-03-08T03:07:15.976Z,4.03
2023-03-08T03:09:43.634Z,3.80
2023-03-08T03:12:11.305Z,4.93
2023-03-08T03:14:40.302Z,5.40
2023-03-08T03:17:08.680Z,4.00
2023-03-08T03:19:36.268Z,3.50
2023-03-08T03:22:04.132Z,5.28
2023-03-08T03:24:31.775Z,5.10
2023-03-08T03:26:59.381Z,5.22
2023-03-08T03:29:27.064Z,5.20
2023-03-08T03:31:56.033Z,4.85
2023-03-08T03:34:23.828Z,4.38
2023-03-08T03:36:51.559Z,6.10
2023-03-08T03:39:19.202Z,5.15
2023-03-08T03:41:46.776Z,4.95
2023-03-08T03:44:14.511Z,6.28
2023-03-08T03:46:42.156Z,6.43
2023-03-08T03:49:11.563Z,6.53
2023-03-08T03:51:39.248Z,6.35
2023-03-08T03:54:07.479Z,6.18
2023-03-08T03:56:35.197Z,4.63
2023-03-08T03:59:03.016Z,3.35
2023-03-08T04:01:32.266Z,4.78
2023-03-08T04:04:00.192Z,5.50
2023-03-08T04:06:30.252Z,5.53
2023-03-08T04:08:59.551Z,4.72
2023-03-08T04:11:29.813Z,4.43
2023-03-08T04:13:58.144Z,4.90
2023-03-08T04:16:29.251Z,5.25
2023-03-08T04:18:58.517Z,3.50
2023-03-08T04:21:26.687Z,3.83
2023-03-08T04:23:55.934Z,4.68
2023-03-08T04:26:24.084Z,5.40
2023-03-08T04:28:51.744Z,3.13
2023-03-08T04:31:20.708Z,4.93
2023-03-08T04:33:48.803Z,4.78
2023-03-08T04:36:17.010Z,5.45
2023-03-08T04:38:45.631Z,4.28
2023-03-08T04:41:14.635Z,3.58
2023-03-08T04:43:44.850Z,3.03
2023-03-08T04:46:12.572Z,4.43
2023-03-08T04:48:40.264Z,4.63
2023-03-08T04:51:08.976Z,4.38
2023-03-08T04:53:36.893Z,3.97
2023-03-08T04:56:04.772Z,5.78
2023-03-08T04:58:33.927Z,3.75
2023-03-08T05:01:01.630Z,3.42
2023-03-08T05:03:29.259Z,3.97
2023-03-08T05:05:57.833Z,2.78
2023-03-08T05:08:25.552Z,3.80
2023-03-08T05:10:55.412Z,3.22
2023-03-08T05:13:23.017Z,4.85
2023-03-08T05:15:52.899Z,4.35
2023-03-08T05:18:21.456Z,4.20
2023-03-08T05:20:54.558Z,5.13
2023-03-08T05:23:22.320Z,3.22
2023-03-08T05:25:52.626Z,5.07
2023-03-08T05:28:20.450Z,2.83
2023-03-08T05:30:48.078Z,3.70
2023-03-08T05:33:17.352Z,4.47
2023-03-08T05:35:53.558Z,2.90
2023-03-08T05:38:21.530Z,3.38
2023-03-08T05:40:49.194Z,4.07
2023-03-08T05:43:17.012Z,3.60
2023-03-08T05:45:44.870Z,4.32
2023-03-08T05:48:12.530Z,4.88
2023-03-08T05:50:41.541Z,3.42
2023-03-08T05:53:09.196Z,5.28
2023-03-08T05:55:36.809Z,2.72
2023-03-08T05:58:04.779Z,3.95
2023-03-08T06:00:32.476Z,3.45
2023-03-08T06:03:03.879Z,4.97
2023-03-08T06:05:31.654Z,3.28
2023-03-08T06:08:01.125Z,4.43
2023-03-08T06:10:30.502Z,5.72
2023-03-08T06:12:58.200Z,4.43
2023-03-08T06:15:25.863Z,5.30
2023-03-08T06:17:53.936Z,3.97
2023-03-08T06:20:21.797Z,4.15
2023-03-08T06:22:49.446Z,4.35
2023-03-08T06:25:20.761Z,4.30
2023-03-08T06:27:48.560Z,4.20
2023-03-08T06:30:16.265Z,4.00
2023-03-08T06:32:44.120Z,4.45
2023-03-08T06:35:11.912Z,4.80
2023-03-08T06:37:40.220Z,6.22
2023-03-08T06:40:09.637Z,4.85
2023-03-08T06:42:41.734Z,4.65
2023-03-08T06:45:10.378Z,5.35
2023-03-08T06:47:39.450Z,2.05
2023-03-08T06:50:07.527Z,3.72
2023-03-08T06:52:37.891Z,4.35
2023-03-08T06:55:06.014Z,5.38
2023-03-08T06:57:33.637Z,3.15
2023-03-08T07:00:04.009Z,3.25
2023-03-08T07:02:31.633Z,4.43
2023-03-08T07:04:59.495Z,2.08
2023-03-08T07:07:28.180Z,5.40
2023-03-08T07:09:55.809Z,4.55
2023-03-08T07:12:23.462Z,5.03
2023-03-08T07:14:53.341Z,3.92
2023-03-08T07:17:23.327Z,5.78
2023-03-08T07:19:50.926Z,5.32
2023-03-08T07:22:18.603Z,4.07
2023-03-08T07:24:49.653Z,5.03
2023-03-08T07:27:17.673Z,3.42
2023-03-08T07:29:45.414Z,4.07
2023-03-08T07:32:13.171Z,4.10
2023-03-08T07:34:42.336Z,5.57
2023-03-08T07:37:12.262Z,4.82
2023-03-08T07:39:40.086Z,4.45
2023-03-08T07:42:07.839Z,4.25
2023-03-08T07:44:37.161Z,4.45
2023-03-08T07:47:04.810Z,2.80
2023-03-08T07:49:32.410Z,4.93
2023-03-08T07:52:01.406Z,5.03
2023-03-08T07:54:29.050Z,4.15
2023-03-08T07:56:57.074Z,4.75
2023-03-08T07:59:25.448Z,5.13
2023-03-08T08:01:53.095Z,3.55
2023-03-08T08:04:23.184Z,3.95
2023-03-08T08:06:51.114Z,6.28
2023-03-08T08:09:20.109Z,3.88
2023-03-08T08:11:47.766Z,3.33
2023-03-08T08:14:15.977Z,4.95
2023-03-08T08:16:43.694Z,3.97
2023-03-08T08:19:12.357Z,4.53
2023-03-08T08:21:40.016Z,2.72
2023-03-08T08:24:08.213Z,5.07
2023-03-08T08:26:37.266Z,3.72
2023-03-08T08:29:05.011Z,4.45
2023-03-08T08:31:32.765Z,4.30
2023-03-08T08:34:00.873Z,4.78
2023-03-08T08:36:28.970Z,3.92
2023-03-08T08:38:57.763Z,4.45
2023-03-08T08:41:25.430Z,4.32
2023-03-08T08:43:56.741Z,3.67
2023-03-08T08:46:24.393Z,4.32
2023-03-08T08:48:52.544Z,4.40
2023-03-08T08:51:20.167Z,4.65
2023-03-08T08:53:47.944Z,3.50
2023-03-08T08:56:28.406Z,3.60
2023-03-08T08:58:58.331Z,3.33
2023-03-08T09:01:27.313Z,4.10
2023-03-08T09:03:55.791Z,3.75
2023-03-08T09:06:24.485Z,3.35
2023-03-08T09:08:52.446Z,4.53
2023-03-08T09:11:20.082Z,3.53
2023-03-08T09:13:47.721Z,3.15
2023-03-08T09:16:23.409Z,3.13
2023-03-08T09:18:53.573Z,3.92
2023-03-08T09:21:21.330Z,3.63
2023-03-08T09:23:48.931Z,3.42
2023-03-08T09:26:16.691Z,3.70
2023-03-08T09:28:45.161Z,2.97
2023-03-08T09:31:15.141Z,3.45
2023-03-08T09:33:45.327Z,4.00
2023-03-08T09:36:13.114Z,3.17
2023-03-08T09:38:41.018Z,2.50
2023-03-08T09:41:14.656Z,2.15
2023-03-08T09:43:45.482Z,2.72
2023-03-08T09:46:14.685Z,4.40
2023-03-08T09:48:44.738Z,3.22
2023-03-08T09:51:13.044Z,2.80
2023-03-08T09:53:42.267Z,2.95
2023-03-08T09:56:15.760Z,3.58
2023-03-08T09:58:45.053Z,2.20
2023-03-08T10:01:20.774Z,2.78
2023-03-08T10:03:55.643Z,2.63
2023-03-08T10:06:27.022Z,2.92
2023-03-08T10:08:57.239Z,2.40
2023-03-08T10:11:27.687Z,4.22
2023-03-08T10:13:57.679Z,3.20
2023-03-08T10:16:27.009Z,2.90
2023-03-08T10:18:59.901Z,3.33
2023-03-08T10:21:28.346Z,2.00
2023-03-08T10:23:58.878Z,4.15
2023-03-08T10:26:26.894Z,3.55
2023-03-08T10:28:54.610Z,3.05
2023-03-08T10:31:26.037Z,3.20
2023-03-08T10:34:01.823Z,3.72
2023-03-08T10:36:31.330Z,3.00
2023-03-08T10:39:02.472Z,3.55
2023-03-08T10:41:32.987Z,3.55
2023-03-08T10:44:01.316Z,3.03
2023-03-08T10:46:30.599Z,2.97
2023-03-08T10:49:07.557Z,2.97
2023-03-08T10:51:36.567Z,4.10
2023-03-08T10:54:05.848Z,2.97
2023-03-08T10:56:37.741Z,3.88
2023-03-08T10:59:06.479Z,4.15
2023-03-08T11:01:38.502Z,5.15
2023-03-08T11:04:07.132Z,3.15
2023-03-08T11:06:36.776Z,3.72
2023-03-08T11:09:05.643Z,4.25
2023-03-08T11:11:41.902Z,3.92
2023-03-08T11:14:10.896Z,4.15
2023-03-08T11:16:56.180Z,3.97
2023-03-08T11:19:33.513Z,4.22
2023-03-08T11:22:05.977Z,3.28
2023-03-08T11:24:40.210Z,3.90
2023-03-08T11:27:16.833Z,4.60
2023-03-08T11:29:50.525Z,5.20
2023-03-08T11:32:29.490Z,4.93
2023-03-08T11:35:05.710Z,4.70
2023-03-08T11:37:38.540Z,4.80
2023-03-08T11:40:14.748Z,4.20
2023-03-08T11:42:45.967Z,4.30
2023-03-08T11:45:20.670Z,4.30
2023-03-08T11:48:01.871Z,4.38
2023-03-08T11:50:30.720Z,4.70
2023-03-08T11:53:04.776Z,4.63
2023-03-08T11:55:40.682Z,3.88
2023-03-08T11:58:12.349Z,4.82
2023-03-08T12:00:41.352Z,5.20
2023-03-08T12:03:12.794Z,3.72
2023-03-08T12:05:42.157Z,4.38
2023-03-08T12:08:15.085Z,4.80
2023-03-08T12:10:45.552Z,5.75
2023-03-08T12:13:15.925Z,4.53
2023-03-08T12:15:47.637Z,6.00
2023-03-08T12:18:16.979Z,4.68
2023-03-08T12:20:45.799Z,6.22
2023-03-08T12:23:21.599Z,5.05
2023-03-08T12:25:50.538Z,4.20
2023-03-08T12:28:21.186Z,6.80
2023-03-08T12:30:55.410Z,5.03
2023-03-08T12:33:24.334Z,5.72
2023-03-08T12:35:53.343Z,5.63
2023-03-08T12:38:33.558Z,6.20
2023-03-08T12:41:01.474Z,5.10
2023-03-08T12:43:30.894Z,5.45
2023-03-08T12:46:02.778Z,7.38
2023-03-08T12:48:32.012Z,7.05
2023-03-08T12:51:02.650Z,6.13
2023-03-08T12:53:42.432Z,7.30
2023-03-08T12:56:24.301Z,6.35
2023-03-08T12:58:53.252Z,6.03
2023-03-08T13:01:38.326Z,6.05
2023-03-08T13:04:07.092Z,6.75
2023-03-08T13:06:51.391Z,6.82
2023-03-08T13:09:23.936Z,5.90
2023-03-08T13:11:55.667Z,6.32
2023-03-08T13:14:26.342Z,6.38
2023-03-08T13:16:54.566Z,5.47
2023-03-08T13:19:26.245Z,5.93
2023-03-08T13:21:58.670Z,4.97
2023-03-08T13:24:33.052Z,8.07
2023-03-08T13:27:19.361Z,7.45
2023-03-08T13:29:48.328Z,6.78
2023-03-08T13:32:17.750Z,6.88
2023-03-08T13:34:47.116Z,7.43
2023-03-08T13:37:21.377Z,6.80
2023-03-08T13:39:54.367Z,6.30
2023-03-08T13:42:24.858Z,7.07
2023-03-08T13:44:52.877Z,6.90
2023-03-08T13:47:25.468Z,7.28
2023-03-08T13:49:54.263Z,6.47
2023-03-08T13:52:22.884Z,8.25
2023-03-08T13:54:52.700Z,6.68
2023-03-08T13:57:23.687Z,8.02
2023-03-08T13:59:52.652Z,7.28
2023-03-08T14:02:21.588Z,7.07
2023-03-08T14:04:49.398Z,6.85
2023-03-08T14:07:20.958Z,7.88
2023-03-08T14:09:48.622Z,8.05
2023-03-08T14:12:18.154Z,7.50
2023-03-08T14:14:48.957Z,7.82
2023-03-08T14:17:20.325Z,8.75
2023-03-08T14:19:53.298Z,8.77
2023-03-08T14:22:36.072Z,9.38
2023-03-08T14:25:06.916Z,8.63
2023-03-08T14:27:38.881Z,8.82
2023-03-08T14:30:14.717Z,8.05
2023-03-08T14:32:43.689Z,7.95
2023-03-08T14:35:20.138Z,8.82
2023-03-08T14:37:49.510Z,8.52
2023-03-08T14:40:22.124Z,9.30
2023-03-08T14:42:51.744Z,9.10
2023-03-08T14:45:22.870Z,8.70
2023-03-08T14:47:51.133Z,10.60
2023-03-08T14:50:20.276Z,9.85
2023-03-08T14:52:48.724Z,9.40
2023-03-08T14:55:24.462Z,9.20
2023-03-08T14:57:52.754Z,8.07
2023-03-08T15:00:22.836Z,9.77
2023-03-08T15:02:50.509Z,9.30
2023-03-08T15:05:28.356Z,11.07
2023-03-08T15:07:56.689Z,9.20
2023-03-08T15:10:26.522Z,10.98
2023-03-08T15:12:54.525Z,10.55
2023-03-08T15:15:23.589Z,10.65
2023-03-08T15:17:51.204Z,10.70
2023-03-08T15:20:19.344Z,8.45
2023-03-08T15:22:49.668Z,8.80
2023-03-08T15:25:18.968Z,8.75
2023-03-08T15:27:48.244Z,8.85
2023-03-08T15:30:18.385Z,11.60
2023-03-08T15:32:47.645Z,9.65
2023-03-08T15:35:15.584Z,11.52
2023-03-08T15:37:44.618Z,10.68
2023-03-08T15:40:13.409Z,10.38
2023-03-08T15:42:41.077Z,9.40
2023-03-08T15:45:09.310Z,8.30
2023-03-08T15:47:38.293Z,8.52
2023-03-08T15:50:12.714Z,9.48
2023-03-08T15:52:40.371Z,8.75
2023-03-08T15:55:08.892Z,10.68
2023-03-08T15:57:37.627Z,10.30
2023-03-08T16:00:08.040Z,7.50
2023-03-08T16:02:36.325Z,10.82
2023-03-08T16:05:04.337Z,10.55
2023-03-08T16:07:33.467Z,9.27
2023-03-08T16:10:02.098Z,9.40
2023-03-08T16:12:29.749Z,10.98
2023-03-08T16:14:58.435Z,10.63
2023-03-08T16:17:26.514Z,9.73
2023-03-08T16:19:54.168Z,8.85
2023-03-08T16:22:21.986Z,8.85
2023-03-08T16:24:51.019Z,9.57
2023-03-08T16:27:18.733Z,10.18
2023-03-08T16:29:46.743Z,8.32
2023-03-08T16:32:15.423Z,11.23
2023-03-08T16:34:43.308Z,10.18
2023-03-08T16:37:10.968Z,9.48
2023-03-08T16:39:38.758Z,9.70
2023-03-08T16:42:11.718Z,10.23
2023-03-08T16:44:39.636Z,9.20
2023-03-08T16:47:07.284Z,10.77
2023-03-08T16:49:35.270Z,9.75
2023-03-08T16:52:02.993Z,10.98
2023-03-08T16:54:31.027Z,9.20
2023-03-08T16:57:01.101Z,9.75
2023-03-08T16:59:34.089Z,9.27
2023-03-08T17:02:01.787Z,9.02
2023-03-08T17:04:29.429Z,9.50
2023-03-08T17:06:57.342Z,11.30
2023-03-08T17:09:24.989Z,10.23
2023-03-08T17:11:52.647Z,10.13
2023-03-08T17:14:20.276Z,11.77
2023-03-08T17:16:49.313Z,9.98
2023-03-08T17:19:17.584Z,9.98
2023-03-08T17:21:45.236Z,10.52
2023-03-08T17:24:13.864Z,11.77
2023-03-08T17:26:42.380Z,10.88
2023-03-08T17:29:10.234Z,10.80
2023-03-08T17:31:40.528Z,10.93
2023-03-08T17:34:10.270Z,15.95
2023-03-08T17:36:38.089Z,13.30
2023-03-08T17:39:06.092Z,12.88
2023-03-08T17:41:34.421Z,12.82
2023-03-08T17:44:02.201Z,12.55
2023-03-08T17:46:30.214Z,10.60
2023-03-08T17:48:58.125Z,14.10
2023-03-08T17:51:28.384Z,11.82
2023-03-08T17:53:57.099Z,10.65
2023-03-08T17:56:29.226Z,10.25
2023-03-08T17:58:57.917Z,11.70
2023-03-08T18:01:26.735Z,12.50
2023-03-08T18:03:55.712Z,9.77
2023-03-08T18:06:24.934Z,10.88
2023-03-08T18:08:54.158Z,10.85
2023-03-08T18:11:22.124Z,11.77
2023-03-08T18:13:51.333Z,14.25
2023-03-08T18:16:19.032Z,15.98
2023-03-08T18:18:49.470Z,12.93
2023-03-08T18:21:17.750Z,13.48
2023-03-08T18:23:45.643Z,13.63
2023-03-08T18:26:20.031Z,21.08
2023-03-08T18:28:47.893Z,13.45
2023-03-08T18:31:16.689Z,12.23
2023-03-08T18:33:44.718Z,12.32
2023-03-08T18:36:12.584Z,17.42
2023-03-08T18:38:40.874Z,17.58
2023-03-08T18:41:12.274Z,21.77
2023-03-08T18:43:41.290Z,15.80
2023-03-08T18:46:11.094Z,15.85
2023-03-08T18:48:39.236Z,17.85
2023-03-08T18:51:07.096Z,15.68
2023-03-08T18:53:34.853Z,13.98
2023-03-08T18:56:04.212Z,16.60
2023-03-08T18:58:31.938Z,16.65
2023-03-08T19:01:03.225Z,13.50
2023-03-08T19:03:31.864Z,12.00
2023-03-08T19:06:02.232Z,13.95
2023-03-08T19:08:29.976Z,12.63
2023-03-08T19:10:57.726Z,13.68
2023-03-08T19:13:25.431Z,12.30
2023-03-08T19:15:53.068Z,14.43
2023-03-08T19:18:23.585Z,14.30
2023-03-08T19:20:51.623Z,14.00
2023-03-08T19:23:26.127Z,13.60
2023-03-08T19:26:11.513Z,14.13
2023-03-08T19:28:39.373Z,14.30
2023-03-08T19:31:07.380Z,13.10
2023-03-08T19:33:36.402Z,14.27
2023-03-08T19:36:04.136Z,12.90
2023-03-08T19:38:31.793Z,16.63
2023-03-08T19:40:59.399Z,14.00
2023-03-08T19:43:27.044Z,17.77
2023-03-08T19:45:56.787Z,16.98
2023-03-08T19:48:24.533Z,14.80
2023-03-08T19:50:53.604Z,15.93
2023-03-08T19:53:23.722Z,21.83
2023-03-08T19:55:51.530Z,15.30
2023-03-08T19:58:19.915Z,17.50
2023-03-08T20:00:48.880Z,14.98
2023-03-08T20:03:17.838Z,19.08
2023-03-08T20:05:46.462Z,19.40
2023-03-08T20:08:15.538Z,17.63
2023-03-08T20:10:43.224Z,18.10
2023-03-08T20:13:10.853Z,14.75
2023-03-08T20:15:38.489Z,15.25
2023-03-08T20:18:06.145Z,18.38
2023-03-08T20:20:33.810Z,15.15
2023-03-08T20:23:01.477Z,15.07
2023-03-08T20:25:30.463Z,13.55
2023-03-08T20:27:58.175Z,12.82
2023-03-08T20:30:25.947Z,16.23
2023-03-08T20:32:53.548Z,16.60
2023-03-08T20:35:23.837Z,14.15
2023-03-08T20:37:51.650Z,13.75
2023-03-08T20:40:20.974Z,12.45
2023-03-08T20:42:50.005Z,13.27
2023-03-08T20:45:18.059Z,14.60
2023-03-08T20:47:46.630Z,14.60
2023-03-08T20:50:14.290Z,14.90
2023-03-08T20:52:41.952Z,14.85
2023-03-08T20:55:09.687Z,13.63
2023-03-08T20:57:37.356Z,14.32
2023-03-08T21:00:09.332Z,12.48
2023-03-08T21:02:37.638Z,12.52
2023-03-08T21:05:06.492Z,14.00
2023-03-08T21:07:34.417Z,15.40
2023-03-08T21:10:02.043Z,13.05
2023-03-08T21:12:30.454Z,13.60
2023-03-08T21:14:58.796Z,13.35
2023-03-08T21:17:27.806Z,13.68
2023-03-08T21:19:56.039Z,14.38
2023-03-08T21:22:23.932Z,12.80
2023-03-08T21:24:51.724Z,15.77
2023-03-08T21:27:19.428Z,15.82
2023-03-08T21:29:47.013Z,12.82
2023-03-08T21:32:14.697Z,12.13
2023-03-08T21:34:43.670Z,13.00
2023-03-08T21:37:11.414Z,14.75
2023-03-08T21:39:39.048Z,12.07
2023-03-08T21:42:06.721Z,13.40
2023-03-08T21:44:34.633Z,12.57
2023-03-08T21:47:02.317Z,12.80
2023-03-08T21:49:30.887Z,12.40
2023-03-08T21:52:05.210Z,13.63
2023-03-08T21:54:33.532Z,14.75
2023-03-08T21:57:01.667Z,16.67
2023-03-08T21:59:29.477Z,13.88
2023-03-08T22:01:58.828Z,15.57
2023-03-08T22:04:27.707Z,13.70
2023-03-08T22:06:55.671Z,24.38
2023-03-08T22:09:26.817Z,16.50
2023-03-08T22:11:54.477Z,13.73
2023-03-08T22:14:22.184Z,13.40
2023-03-08T22:16:49.801Z,16.05
2023-03-08T22:19:18.051Z,12.70
2023-03-08T22:21:45.677Z,12.32
2023-03-08T22:24:13.367Z,11.02
2023-03-08T22:26:42.365Z,11.50
2023-03-08T22:29:10.100Z,8.50
2023-03-08T22:31:37.797Z,10.25
2023-03-08T22:34:07.693Z,14.75
2023-03-08T22:36:35.839Z,9.20
2023-03-08T22:39:03.597Z,8.52
2023-03-08T22:41:31.533Z,9.43
2023-03-08T22:44:04.026Z,15.50
2023-03-08T22:46:32.011Z,13.90
2023-03-08T22:49:03.156Z,11.90
2023-03-08T22:51:30.747Z,9.85
2023-03-08T22:53:59.144Z,10.57
2023-03-08T22:56:29.569Z,9.00
2023-03-08T22:58:57.321Z,8.45
2023-03-08T23:01:26.935Z,21.95
2023-03-08T23:03:56.812Z,10.07
2023-03-08T23:06:24.883Z,8.38
2023-03-08T23:08:52.502Z,13.30
2023-03-08T23:11:20.161Z,20.83
2023-03-08T23:13:47.812Z,10.52
2023-03-08T23:16:16.653Z,18.20
2023-03-08T23:18:45.837Z,11.65
2023-03-08T23:21:14.865Z,10.38
2023-03-08T23:23:42.837Z,8.73
2023-03-08T23:26:13.046Z,9.07
2023-03-08T23:28:41.264Z,8.55
2023-03-08T23:31:09.867Z,10.50
2023-03-08T23:33:37.738Z,12.48
2023-03-08T23:36:07.592Z,11.05
2023-03-08T23:38:35.310Z,10.85
2023-03-08T23:41:04.643Z,10.27
2023-03-08T23:43:32.474Z,9.63
2023-03-08T23:46:00.241Z,14.80
2023-03-08T23:48:28.624Z,17.45
2023-03-08T23:50:56.297Z,9.70
2023-03-08T23:53:25.389Z,7.57
2023-03-08T23:55:53.081Z,9.15
2023-03-08T23:58:20.820Z,12.05
